Time;durP1;ratioP1;P1;durP2;ratioP2;P2;SDS_P1;SDS_P2;PMS_P1;PMS_P2;Temp;Humidity;BMP_temperature;BMP_pressure;BME280_temperature;BME280_humidity;BME280_pressure;Samples;Min_cycle;Max_cycle;Signal;HPM_P1;HPM_P2
2024/01/07 00:00:03;;;;;;;;;0.00;0.00;;;;;8.59;66.65;100673.72;5110274;27;45395;-69
2024/01/07 00:02:30;;;;;;;;;0.00;0.00;;;;;8.43;66.66;100644.44;5105961;27;46087;-69
2024/01/07 00:04:56;;;;;;;;;3.75;3.50;;;;;8.76;66.96;100702.19;5110474;27;45432;-69
2024/01/07 00:07:22;;;;;;;;;0.00;0.00;;;;;8.75;66.95;100713.47;5110876;27;45472;-69
2024/01/07 00:09:47;;;;;;;;;0.00;0.00;;;;;8.58;67.70;100695.38;5106963;27;45527;-71
2024/01/07 00:12:13;;;;;;;;;0.75;0.00;;;;;8.73;67.26;100707.31;5111341;27;45324;-69
2024/01/07 00:14:39;;;;;;;;;0.00;0.00;;;;;8.71;66.98;100711.56;5109588;27;45226;-69
2024/01/07 00:17:04;;;;;;;;;0.00;0.00;;;;;8.69;67.55;100712.31;5111485;27;45314;-69
2024/01/07 00:19:35;;;;;;;;;1.00;0.00;;;;;8.64;67.35;100719.06;5120225;27;45354;-69
2024/01/07 00:22:04;;;;;;;;;0.00;0.00;;;;;8.59;68.26;100726.66;5117367;27;45344;-69
2024/01/07 00:24:29;;;;;;;;;0.00;0.00;;;;;8.60;67.73;100718.06;5118571;27;45463;-69
2024/01/07 00:26:55;;;;;;;;;0.00;0.00;;;;;8.65;67.48;100713.91;5118806;27;45620;-69
2024/01/07 00:29:22;;;;;;;;;0.00;0.00;;;;;8.66;67.16;100715.69;5119214;27;45810;-69
2024/01/07 00:31:47;;;;;;;;;0.00;0.00;;;;;8.71;66.61;100718.47;5119303;27;46031;-70
2024/01/07 00:34:13;;;;;;;;;0.00;0.00;;;;;8.77;67.36;100734.34;5118746;27;45416;-70
2024/01/07 00:36:38;;;;;;;;;0.25;0.00;;;;;8.82;67.08;100727.63;5119161;27;45411;-71
2024/01/07 00:39:05;;;;;;;;;0.00;0.00;;;;;8.71;67.10;100714.16;5119457;27;45351;-71
2024/01/07 00:41:31;;;;;;;;;0.00;0.00;;;;;8.91;67.92;100730.59;5118960;27;46217;-70
2024/01/07 00:43:57;;;;;;;;;1.00;0.00;;;;;8.59;67.51;100698.03;5118614;27;45418;-69
2024/01/07 00:46:22;;;;;;;;;0.00;0.00;;;;;8.74;67.57;100742.06;5118991;27;45474;-70
2024/01/07 00:48:48;;;;;;;;;0.00;0.00;;;;;8.86;67.95;100770.31;5119628;27;45501;-70
2024/01/07 00:51:14;;;;;;;;;1.00;0.50;;;;;8.90;67.61;100773.09;5118511;27;45364;-70
2024/01/07 00:53:40;;;;;;;;;0.00;0.00;;;;;8.93;67.60;100762.81;5116159;27;45701;-70
2024/01/07 00:56:06;;;;;;;;;0.00;0.00;;;;;8.82;67.81;100734.53;5119019;27;45285;-70
2024/01/07 00:58:32;;;;;;;;;1.00;0.00;;;;;9.01;67.47;100746.56;5118940;27;45455;-70
2024/01/07 01:00:59;;;;;;;;;0.00;0.00;;;;;8.98;67.27;100739.53;5118371;27;45433;-71
2024/01/07 01:03:26;;;;;;;;;1.00;0.00;;;;;8.82;67.25;100709.38;5118540;27;45622;-71
2024/01/07 01:05:52;;;;;;;;;1.00;0.00;;;;;9.02;67.21;100740.53;5118696;27;45398;-71
2024/01/07 01:08:17;;;;;;;;;0.00;0.00;;;;;9.01;67.10;100743.97;5119103;27;45453;-71
2024/01/07 01:10:43;;;;;;;;;0.00;0.00;;;;;9.00;67.37;100745.69;5119003;27;45326;-71
2024/01/07 01:13:09;;;;;;;;;0.00;0.00;;;;;9.01;67.01;100749.19;5119257;27;45183;-71
2024/01/07 01:15:34;;;;;;;;;0.00;0.00;;;;;8.98;67.07;100747.34;5118930;27;45514;-71
2024/01/07 01:18:00;;;;;;;;;0.00;0.00;;;;;8.95;67.27;100757.63;5119607;27;45236;-71
2024/01/07 01:20:26;;;;;;;;;1.00;0.25;;;;;8.88;67.55;100750.41;5119076;27;46118;-71
2024/01/07 01:22:51;;;;;;;;;0.00;0.00;;;;;8.85;67.75;100760.69;5119564;27;45464;-71
2024/01/07 01:25:17;;;;;;;;;0.00;0.00;;;;;8.77;67.30;100726.53;5119481;27;45246;-71
2024/01/07 01:27:42;;;;;;;;;0.75;0.00;;;;;8.86;67.21;100741.66;5119390;27;45368;-72
2024/01/07 01:30:08;;;;;;;;;0.00;0.00;;;;;8.85;67.43;100745.06;5118884;27;46222;-71
2024/01/07 01:32:34;;;;;;;;;0.00;0.00;;;;;8.74;67.73;100734.22;5118841;27;45499;-70
2024/01/07 01:34:59;;;;;;;;;1.00;0.00;;;;;8.83;67.45;100754.53;5118927;27;45421;-71
2024/01/07 01:37:25;;;;;;;;;0.00;0.00;;;;;8.86;67.98;100760.78;5119029;27;45617;-71
2024/01/07 01:39:50;;;;;;;;;0.00;0.00;;;;;8.91;67.93;100766.16;5119165;27;45899;-71
2024/01/07 01:42:16;;;;;;;;;0.00;0.00;;;;;8.92;67.68;100771.44;5118977;27;45523;-69
2024/01/07 01:44:42;;;;;;;;;0.00;0.00;;;;;8.91;67.72;100780.09;5118803;27;45351;-69
2024/01/07 01:47:08;;;;;;;;;0.00;0.00;;;;;8.83;67.11;100776.25;5119090;27;45250;-69
2024/01/07 01:49:35;;;;;;;;;0.00;0.00;;;;;8.80;67.11;100770.94;5118578;27;46168;-69
2024/01/07 01:52:01;;;;;;;;;0.00;0.00;;;;;8.60;67.23;100738.00;5118576;27;45213;-69
2024/01/07 01:54:28;;;;;;;;;0.00;0.00;;;;;8.69;67.55;100772.22;5118672;27;45795;-69
2024/01/07 01:56:54;;;;;;;;;0.00;0.00;;;;;8.64;67.53;100768.53;5118705;27;45349;-69
2024/01/07 01:59:21;;;;;;;;;0.75;0.75;;;;;8.54;67.80;100754.25;5118631;27;46185;-69
2024/01/07 02:01:47;;;;;;;;;0.25;0.25;;;;;8.46;68.22;100759.13;5118690;27;45337;-69
2024/01/07 02:04:15;;;;;;;;;0.00;0.00;;;;;8.41;68.10;100759.72;5118559;27;45387;-69
2024/01/07 02:06:41;;;;;;;;;0.00;0.00;;;;;8.38;68.22;100764.81;5118564;27;45457;-69
2024/01/07 02:09:06;;;;;;;;;1.00;0.00;;;;;8.34;68.34;100766.41;5118279;27;45973;-69
2024/01/07 02:11:32;;;;;;;;;0.00;0.00;;;;;8.32;68.07;100768.06;5118408;27;45698;-69
2024/01/07 02:13:57;;;;;;;;;0.00;0.00;;;;;8.30;68.36;100773.19;5118413;27;45529;-69
2024/01/07 02:16:23;;;;;;;;;1.00;1.00;;;;;8.29;68.29;100773.13;5119044;27;45530;-69
2024/01/07 02:18:49;;;;;;;;;4.00;1.00;;;;;8.28;68.35;100776.56;5118192;27;45829;-69
2024/01/07 02:21:15;;;;;;;;;0.00;0.00;;;;;8.12;68.29;100749.00;5118483;27;45606;-69
2024/01/07 02:23:41;;;;;;;;;0.00;0.00;;;;;8.25;68.62;100784.22;5118330;27;45372;-69
2024/01/07 02:26:07;;;;;;;;;1.00;0.50;;;;;8.17;69.01;100789.97;5119103;27;45239;-69
2024/01/07 02:28:34;;;;;;;;;0.50;0.00;;;;;8.13;68.49;100784.56;5121712;27;45492;-69
2024/01/07 02:31:00;;;;;;;;;0.75;0.75;;;;;8.12;68.69;100783.69;5121829;27;45567;-69
2024/01/07 02:33:25;;;;;;;;;0.00;0.00;;;;;8.15;68.51;100776.00;5122310;27;46176;-69
2024/01/07 02:35:51;;;;;;;;;0.00;0.00;;;;;7.87;68.57;100724.50;5122472;27;45204;-69
2024/01/07 02:38:17;;;;;;;;;1.75;0.00;;;;;8.16;68.46;100774.31;5121829;27;45977;-69
2024/01/07 02:40:42;;;;;;;;;0.50;0.00;;;;;8.16;68.37;100775.19;5121704;27;45456;-69
2024/01/07 02:43:08;;;;;;;;;1.00;1.00;;;;;8.02;68.48;100760.72;5121395;27;45488;-69
2024/01/07 02:45:34;;;;;;;;;0.00;0.00;;;;;8.14;68.51;100787.25;5122061;27;45584;-69
2024/01/07 02:47:59;;;;;;;;;1.50;0.50;;;;;8.12;68.59;100786.28;5121538;27;46011;-69
2024/01/07 02:50:25;;;;;;;;;0.00;0.00;;;;;8.15;68.71;100782.94;5121718;27;45500;-69
2024/01/07 02:52:50;;;;;;;;;0.00;0.00;;;;;8.18;68.60;100783.06;5121606;27;45421;-69
2024/01/07 02:55:16;;;;;;;;;0.00;0.00;;;;;8.01;68.73;100753.72;5121754;27;45504;-69
2024/01/07 02:57:42;;;;;;;;;0.00;0.00;;;;;8.19;68.83;100792.66;5121343;27;46022;-69
2024/01/07 03:00:08;;;;;;;;;0.00;0.00;;;;;8.17;68.50;100800.38;5120660;27;45749;-71
2024/01/07 03:02:33;;;;;;;;;0.00;0.00;;;;;8.20;68.86;100801.34;5121004;27;45296;-71
2024/01/07 03:04:59;;;;;;;;;0.25;0.25;;;;;8.19;68.41;100791.75;5120828;27;45315;-71
2024/01/07 03:07:25;;;;;;;;;0.00;0.00;;;;;8.16;68.62;100790.81;5120914;27;45367;-70
2024/01/07 03:09:50;;;;;;;;;0.00;0.00;;;;;8.16;68.55;100789.94;5120642;27;45414;-70
2024/01/07 03:12:16;;;;;;;;;0.00;0.00;;;;;8.16;68.63;100793.41;5121012;27;45450;-71
2024/01/07 03:14:42;;;;;;;;;0.00;0.00;;;;;8.20;68.49;100791.84;5119572;27;45602;-71
2024/01/07 03:17:10;;;;;;;;;0.00;0.00;;;;;8.25;68.62;100790.31;5120612;27;45488;-70
2024/01/07 03:19:35;;;;;;;;;0.50;0.50;;;;;8.11;68.40;100771.50;5120755;27;45488;-71
2024/01/07 03:22:01;;;;;;;;;0.00;0.00;;;;;8.10;68.43;100768.84;5120936;27;45489;-70
2024/01/07 03:24:26;;;;;;;;;0.00;0.00;;;;;8.20;68.50;100775.31;5121259;27;45404;-70
2024/01/07 03:26:52;;;;;;;;;1.00;0.00;;;;;8.25;68.45;100779.91;5120855;27;45517;-71
2024/01/07 03:29:18;;;;;;;;;0.00;0.00;;;;;8.26;68.53;100784.28;5121130;27;45347;-71
2024/01/07 03:31:43;;;;;;;;;0.00;0.00;;;;;8.30;68.36;100783.59;5121328;27;45750;-71
2024/01/07 03:34:09;;;;;;;;;0.00;0.00;;;;;8.04;68.62;100750.34;5121289;27;45274;-71
2024/01/07 03:36:35;;;;;;;;;0.00;0.00;;;;;8.13;68.63;100785.47;5120811;27;45408;-71
2024/01/07 03:39:00;;;;;;;;;0.00;0.00;;;;;8.00;68.59;100772.75;5119482;27;45457;-71
2024/01/07 03:41:26;;;;;;;;;0.00;0.00;;;;;8.13;68.58;100806.28;5121068;27;45382;-71
2024/01/07 03:43:53;;;;;;;;;0.00;0.00;;;;;8.07;68.77;100807.72;5120912;27;45500;-71
2024/01/07 03:46:18;;;;;;;;;0.00;0.00;;;;;8.04;68.89;100805.88;5120647;27;46078;-71
2024/01/07 03:49:18;;;;;;;;;0.00;0.00;;;;;8.03;68.62;100803.22;5120636;27;45523;-71
2024/01/07 03:51:44;;;;;;;;;0.00;0.00;;;;;8.09;68.67;100801.75;5120848;27;45557;-72
2024/01/07 03:54:12;;;;;;;;;1.00;0.00;;;;;8.08;69.03;100801.72;5120646;27;45269;-71
2024/01/07 03:56:37;;;;;;;;;0.00;0.00;;;;;7.94;69.03;100782.91;5120322;27;46205;-70
2024/01/07 03:59:03;;;;;;;;;0.00;0.00;;;;;8.00;69.02;100796.16;5120310;27;45304;-71
2024/01/07 04:01:28;;;;;;;;;0.00;0.00;;;;;8.02;69.15;100786.72;5120484;27;45324;-69
2024/01/07 04:03:54;;;;;;;;;0.00;0.00;;;;;8.08;69.08;100787.00;5120666;27;45438;-69
2024/01/07 04:06:20;;;;;;;;;0.00;0.00;;;;;8.12;69.17;100793.22;5120532;27;45383;-69
2024/01/07 04:08:45;;;;;;;;;0.00;0.00;;;;;8.16;68.90;100782.13;5120707;27;45320;-69
2024/01/07 04:11:11;;;;;;;;;1.00;1.00;;;;;8.19;68.99;100783.97;5120194;27;45486;-69
2024/01/07 04:13:36;;;;;;;;;0.00;0.00;;;;;8.19;68.97;100789.16;5120364;27;45424;-69
2024/01/07 04:16:02;;;;;;;;;0.00;0.00;;;;;8.10;68.94;100777.53;5120157;27;45994;-69
2024/01/07 04:18:28;;;;;;;;;0.00;0.00;;;;;8.10;68.98;100784.47;5120187;27;45460;-69
2024/01/07 04:20:53;;;;;;;;;0.25;0.00;;;;;8.06;69.13;100788.63;5120203;27;45472;-69
2024/01/07 04:23:19;;;;;;;;;0.75;0.00;;;;;8.04;69.18;100798.09;5120582;27;45243;-69
2024/01/07 04:25:45;;;;;;;;;1.00;0.75;;;;;8.05;69.18;100794.66;5120000;27;46022;-69
2024/01/07 04:28:10;;;;;;;;;0.00;0.00;;;;;8.07;69.11;100806.00;5118647;27;45301;-69
2024/01/07 04:30:36;;;;;;;;;0.00;0.00;;;;;8.05;69.26;100812.84;5120406;27;45441;-69
2024/01/07 04:33:02;;;;;;;;;0.00;0.00;;;;;8.03;68.80;100814.50;5120388;27;45398;-69
2024/01/07 04:35:27;;;;;;;;;1.00;1.00;;;;;8.01;68.83;100807.47;5119812;27;45455;-69
2024/01/07 04:37:53;;;;;;;;;0.00;0.00;;;;;8.05;69.10;100814.56;5119728;27;45368;-70
2024/01/07 04:40:18;;;;;;;;;2.00;0.00;;;;;8.12;69.25;100825.31;5120348;27;45555;-70
2024/01/07 04:42:44;;;;;;;;;1.00;1.00;;;;;8.19;69.46;100830.81;5120152;27;45355;-69
2024/01/07 04:45:09;;;;;;;;;1.00;1.00;;;;;8.06;69.03;100795.56;5119510;27;45348;-70
2024/01/07 04:47:35;;;;;;;;;0.25;0.25;;;;;8.18;68.78;100798.69;5119769;27;45447;-69
2024/01/07 04:50:01;;;;;;;;;0.00;0.00;;;;;8.21;68.46;100827.44;5119148;27;45447;-70
2024/01/07 04:52:26;;;;;;;;;0.75;0.00;;;;;8.09;68.33;100803.47;5120040;27;45586;-69
2024/01/07 04:54:53;;;;;;;;;1.00;1.00;;;;;7.86;68.09;100753.94;5119895;27;45347;-69
2024/01/07 04:57:19;;;;;;;;;0.00;0.00;;;;;8.17;68.60;100810.78;5119814;27;45443;-69
2024/01/07 04:59:45;;;;;;;;;0.00;0.00;;;;;8.13;68.92;100808.88;5119545;27;45349;-69
2024/01/07 05:02:11;;;;;;;;;1.00;0.50;;;;;8.07;68.89;100802.53;5119620;27;45503;-69
2024/01/07 05:04:36;;;;;;;;;0.50;0.00;;;;;8.14;68.79;100812.41;5118991;27;45266;-69
2024/01/07 05:07:03;;;;;;;;;0.75;0.00;;;;;8.11;69.18;100813.13;5119452;27;45301;-69
2024/01/07 05:09:28;;;;;;;;;0.75;0.75;;;;;8.08;69.34;100805.19;5119584;27;45304;-69
2024/01/07 05:11:54;;;;;;;;;0.00;0.00;;;;;8.19;69.24;100815.19;5119324;27;45513;-70
2024/01/07 05:14:20;;;;;;;;;1.00;0.00;;;;;8.12;69.14;100803.63;5119457;27;45526;-69
2024/01/07 05:16:45;;;;;;;;;0.00;0.00;;;;;8.13;69.04;100795.88;5117865;27;45478;-70
2024/01/07 05:19:11;;;;;;;;;1.00;0.00;;;;;8.33;68.91;100819.28;5119361;27;45384;-69
2024/01/07 05:21:37;;;;;;;;;0.00;0.00;;;;;8.30;68.37;100819.16;5119402;27;45499;-69
2024/01/07 05:24:03;;;;;;;;;1.00;1.00;;;;;8.30;68.79;100816.56;5118938;27;45451;-69
2024/01/07 05:26:28;;;;;;;;;0.00;0.00;;;;;8.26;68.45;100831.13;5119020;27;45824;-69
2024/01/07 05:28:54;;;;;;;;;0.00;0.00;;;;;8.14;69.17;100831.50;5119422;27;45206;-69
2024/01/07 05:31:19;;;;;;;;;0.00;0.00;;;;;8.17;69.17;100842.00;5119498;27;45485;-69
2024/01/07 05:33:45;;;;;;;;;1.00;0.00;;;;;8.23;69.08;100831.00;5118834;27;45485;-69
2024/01/07 05:36:14;;;;;;;;;0.75;0.00;;;;;8.29;69.08;100822.56;5118913;27;45738;-69
2024/01/07 05:38:42;;;;;;;;;0.25;0.25;;;;;8.22;68.98;100826.63;5119193;27;46017;-69
2024/01/07 05:41:07;;;;;;;;;0.00;0.00;;;;;8.15;69.05;100817.63;5119172;27;45236;-69
2024/01/07 05:43:33;;;;;;;;;0.00;0.00;;;;;8.11;69.27;100813.13;5118681;27;45501;-69
2024/01/07 05:45:58;;;;;;;;;0.00;0.00;;;;;8.05;69.26;100811.97;5118944;27;45252;-69
2024/01/07 05:48:24;;;;;;;;;0.00;0.00;;;;;8.15;69.44;100835.84;5119182;27;45335;-69
2024/01/07 05:50:51;;;;;;;;;0.00;0.00;;;;;8.18;69.28;100824.72;5118960;27;45458;-69
2024/01/07 05:53:17;;;;;;;;;0.00;0.00;;;;;8.15;69.22;100830.66;5118644;27;45473;-69
2024/01/07 05:55:43;;;;;;;;;0.00;0.00;;;;;8.08;69.24;100828.63;5118632;27;45270;-69
2024/01/07 05:58:08;;;;;;;;;0.00;0.00;;;;;8.04;69.19;100824.09;5118745;27;45307;-69
2024/01/07 06:00:34;;;;;;;;;0.00;0.00;;;;;7.80;69.05;100795.28;5118096;27;45308;-69
2024/01/07 06:03:00;;;;;;;;;0.00;0.00;;;;;7.93;69.39;100826.19;5118413;27;46003;-69
2024/01/07 06:05:26;;;;;;;;;0.00;0.00;;;;;7.87;69.42;100827.66;5118697;27;45470;-69
2024/01/07 06:07:52;;;;;;;;;0.00;0.00;;;;;7.76;69.50;100817.66;5118672;27;45602;-68
2024/01/07 06:10:17;;;;;;;;;0.00;0.00;;;;;7.79;69.59;100808.22;5118828;27;46203;-68
2024/01/07 06:13:10;;;;;;;;;0.00;0.00;;;;;8.05;69.27;100853.59;5118379;27;45351;-69
2024/01/07 06:15:36;;;;;;;;;3.00;3.00;;;;;8.05;69.18;100859.69;5118754;27;45303;-68
2024/01/07 06:18:02;;;;;;;;;28.00;23.50;;;;;8.02;69.44;100859.56;5118575;27;45286;-68
2024/01/07 06:20:28;;;;;;;;;10.25;7.75;;;;;8.02;69.24;100853.44;5118619;27;45380;-69
2024/01/07 06:22:53;;;;;;;;;7.75;7.75;;;;;8.04;69.19;100855.31;5118007;27;46013;-68
2024/01/07 06:25:20;;;;;;;;;3.00;2.75;;;;;8.00;69.40;100869.03;5118200;27;45427;-68
2024/01/07 06:27:46;;;;;;;;;7.00;5.75;;;;;7.93;69.92;100878.22;5118319;27;45322;-68
2024/01/07 06:30:12;;;;;;;;;7.00;7.00;;;;;7.90;69.91;100883.31;5118217;27;45452;-68
2024/01/07 06:32:37;;;;;;;;;6.75;6.75;;;;;7.94;69.99;100880.03;5117916;27;45524;-68
2024/01/07 06:35:04;;;;;;;;;7.50;6.75;;;;;7.96;69.52;100880.09;5118303;27;45458;-69
2024/01/07 06:37:30;;;;;;;;;2.75;2.50;;;;;7.93;69.50;100862.63;5118231;27;45348;-68
2024/01/07 06:39:57;;;;;;;;;5.00;3.00;;;;;7.97;69.63;100871.47;5118214;27;45440;-68
2024/01/07 06:42:24;;;;;;;;;2.00;1.00;;;;;7.87;69.57;100864.94;5118014;27;45344;-69
2024/01/07 06:44:49;;;;;;;;;1.00;1.00;;;;;7.66;69.66;100833.66;5117720;27;45289;-68
2024/01/07 06:47:15;;;;;;;;;1.00;1.00;;;;;7.85;69.82;100882.19;5118039;27;45503;-69
2024/01/07 06:49:41;;;;;;;;;5.00;5.00;;;;;7.72;70.09;100867.75;5116688;27;45861;-68
2024/01/07 06:52:06;;;;;;;;;1.00;1.00;;;;;7.89;69.82;100880.63;5118085;27;46176;-69
2024/01/07 06:54:33;;;;;;;;;1.00;1.00;;;;;7.76;69.64;100856.66;5117839;27;45471;-70
2024/01/07 06:56:58;;;;;;;;;6.50;5.50;;;;;7.99;69.74;100885.44;5117882;27;46256;-70
2024/01/07 06:59:24;;;;;;;;;3.00;3.00;;;;;8.04;70.01;100877.81;5117753;27;45478;-69
2024/01/07 07:01:49;;;;;;;;;2.50;2.00;;;;;8.04;69.58;100878.75;5117802;27;45322;-69
2024/01/07 07:04:15;;;;;;;;;1.00;1.00;;;;;8.05;69.67;100877.91;5117655;27;45481;-68
2024/01/07 07:06:41;;;;;;;;;1.00;1.00;;;;;8.12;69.48;100890.38;5117938;27;45602;-70
2024/01/07 07:09:06;;;;;;;;;6.00;4.75;;;;;8.15;69.71;100894.81;5115698;27;45369;-71
2024/01/07 07:11:32;;;;;;;;;3.00;2.25;;;;;8.19;69.68;100899.34;5116627;27;45502;-68
2024/01/07 07:13:58;;;;;;;;;4.00;2.75;;;;;8.24;69.72;100896.97;5120087;27;45587;-69
2024/01/07 07:16:23;;;;;;;;;2.75;2.00;;;;;8.24;69.50;100892.66;5120228;27;45634;-69
2024/01/07 07:18:49;;;;;;;;;1.00;1.00;;;;;8.30;69.39;100902.44;5117738;27;45451;-69
2024/01/07 07:21:15;;;;;;;;;3.00;3.00;;;;;8.31;69.30;100905.09;5120140;27;45996;-70
2024/01/07 07:23:40;;;;;;;;;26.00;24.75;;;;;8.31;68.98;100914.63;5120115;27;46043;-69
2024/01/07 07:26:06;;;;;;;;;6.00;4.75;;;;;8.24;68.72;100917.78;5120446;27;45557;-70
2024/01/07 07:28:39;;;;;;;;;57.50;47.50;;;;;8.14;69.06;100916.47;5119981;27;45617;-71
2024/01/07 07:31:12;;;;;;;;;2.50;2.50;;;;;7.88;69.15;100884.06;5119997;27;46136;-71
2024/01/07 07:33:44;;;;;;;;;2.00;2.00;;;;;8.01;69.17;100920.22;5120249;27;45502;-71
2024/01/07 07:36:12;;;;;;;;;4.00;2.75;;;;;8.01;69.35;100909.81;5117506;27;45348;-69
2024/01/07 07:38:42;;;;;;;;;2.25;2.25;;;;;8.05;69.28;100905.63;5120482;27;45238;-71
2024/01/07 07:41:16;;;;;;;;;3.00;3.00;;;;;8.06;69.84;100913.53;5119740;27;45351;-71
2024/01/07 07:43:50;;;;;;;;;15.50;15.00;;;;;8.07;69.71;100922.22;5119571;27;45508;-71
2024/01/07 07:46:17;;;;;;;;;32.25;30.50;;;;;8.08;69.70;100927.50;5117955;27;45341;-71
2024/01/07 07:48:44;;;;;;;;;93.67;80.33;;;;;8.13;69.56;100925.09;5120004;27;45451;-70
2024/01/07 07:51:12;;;;;;;;;30.25;28.00;;;;;8.11;69.46;100918.94;5116977;27;45486;-69
2024/01/07 07:53:40;;;;;;;;;35.00;33.25;;;;;8.15;69.48;100926.06;5118594;27;45423;-70
2024/01/07 07:56:06;;;;;;;;;34.75;33.75;;;;;7.95;69.78;100883.50;5119925;27;45246;-71
2024/01/07 07:58:32;;;;;;;;;25.25;24.25;;;;;8.16;69.88;100917.44;5119895;27;45343;-70
2024/01/07 08:00:58;;;;;;;;;27.25;25.50;;;;;8.26;69.56;100921.34;5119393;27;45476;-69
2024/01/07 08:03:24;;;;;;;;;31.25;26.50;;;;;8.26;69.48;100919.63;5119365;27;45451;-68
2024/01/07 08:05:49;;;;;;;;;34.25;32.00;;;;;8.33;69.54;100931.19;5116744;27;45353;-71
2024/01/07 08:08:16;;;;;;;;;36.00;33.25;;;;;8.37;69.13;100940.94;5119701;27;45463;-69
2024/01/07 08:10:43;;;;;;;;;15.75;13.25;;;;;7.63;69.18;100809.22;5119295;27;45334;-69
2024/01/07 08:13:08;;;;;;;;;11.75;11.75;;;;;8.41;69.32;100937.69;5119362;27;45467;-70
2024/01/07 08:15:35;;;;;;;;;16.50;15.50;;;;;8.44;69.01;100937.81;5119437;27;45430;-69
2024/01/07 08:18:03;;;;;;;;;13.00;11.75;;;;;8.42;69.09;100939.47;5119604;27;45529;-69
2024/01/07 08:20:29;;;;;;;;;7.00;7.00;;;;;8.46;69.05;100954.41;5118881;27;45401;-69
2024/01/07 08:22:54;;;;;;;;;18.50;16.25;;;;;8.45;68.78;100937.00;5119101;27;45643;-70
2024/01/07 08:25:20;;;;;;;;;11.25;10.50;;;;;8.55;68.94;100946.09;5118455;27;45510;-69
2024/01/07 08:27:45;;;;;;;;;109.75;94.50;;;;;8.61;68.86;100955.91;5119381;27;45840;-70
2024/01/07 08:30:13;;;;;;;;;31.00;23.50;;;;;8.43;68.85;100930.81;5119444;27;45829;-70
2024/01/07 08:32:39;;;;;;;;;22.50;19.75;;;;;8.45;68.64;100933.50;5119287;27;45452;-70
2024/01/07 08:35:05;;;;;;;;;25.00;23.50;;;;;8.60;68.81;100955.03;5118972;27;45231;-71
2024/01/07 08:37:31;;;;;;;;;64.00;49.00;;;;;8.61;69.08;100964.59;5119149;27;45462;-71
2024/01/07 08:39:57;;;;;;;;;63.00;51.75;;;;;8.67;69.14;100967.47;5118708;27;45481;-71
2024/01/07 08:42:23;;;;;;;;;39.00;32.50;;;;;8.73;68.97;100970.38;5119023;27;45866;-71
2024/01/07 08:44:49;;;;;;;;;29.50;25.00;;;;;8.78;68.71;100973.19;5118895;27;45305;-72
2024/01/07 08:47:15;;;;;;;;;35.00;31.00;;;;;8.80;68.44;100975.84;5119258;27;45492;-70
2024/01/07 08:49:40;;;;;;;;;33.75;30.00;;;;;8.56;68.57;100947.91;5118893;27;45427;-75
2024/01/07 08:52:06;;;;;;;;;17.50;17.00;;;;;8.80;68.77;100978.47;5118679;27;45477;-69
2024/01/07 08:54:33;;;;;;;;;84.33;66.00;;;;;8.71;68.54;100947.66;5118854;27;45445;-69
2024/01/07 08:56:59;;;;;;;;;66.75;53.25;;;;;8.84;68.60;100965.63;5119087;27;45275;-70
2024/01/07 08:59:24;;;;;;;;;76.25;58.75;;;;;8.96;68.24;100978.31;5118153;27;45597;-69
2024/01/07 09:01:50;;;;;;;;;48.50;41.25;;;;;8.98;68.48;100978.38;5118636;27;45321;-69
2024/01/07 09:04:17;;;;;;;;;22.50;22.25;;;;;8.89;68.20;100950.19;5118505;27;45309;-70
2024/01/07 09:06:44;;;;;;;;;33.75;30.25;;;;;9.02;67.91;100970.75;5119174;27;45936;-69
2024/01/07 09:09:09;;;;;;;;;58.00;45.75;;;;;9.10;68.13;100968.47;5118770;27;45550;-72
2024/01/07 09:11:36;;;;;;;;;33.00;31.25;;;;;9.22;68.26;100965.50;5118559;27;45474;-70
2024/01/07 09:14:03;;;;;;;;;18.75;18.00;;;;;9.12;67.93;100957.28;5117098;27;45516;-69
2024/01/07 09:16:29;;;;;;;;;26.75;23.25;;;;;9.02;68.16;100943.81;5116054;27;45551;-71
2024/01/07 09:18:55;;;;;;;;;32.50;31.75;;;;;9.01;68.44;100928.97;5117693;27;45432;-72
2024/01/07 09:21:23;;;;;;;;;23.00;22.00;;;;;9.39;68.00;100989.66;5118376;27;45232;-70
2024/01/07 09:23:48;;;;;;;;;16.00;15.75;;;;;9.36;67.93;100993.03;5118000;27;45654;-70
2024/01/07 09:26:14;;;;;;;;;22.75;19.50;;;;;9.34;68.00;100998.16;5118364;27;45463;-71
2024/01/07 09:28:40;;;;;;;;;19.25;18.00;;;;;9.36;67.91;100999.13;5118185;27;45975;-70
2024/01/07 09:31:07;;;;;;;;;28.75;26.00;;;;;9.42;67.49;100993.28;5117737;27;45576;-70
2024/01/07 09:33:32;;;;;;;;;22.75;20.75;;;;;9.40;67.55;100983.63;5118422;27;45433;-70
2024/01/07 09:35:58;;;;;;;;;54.50;45.75;;;;;9.46;67.35;100981.28;5116416;27;45498;-70
2024/01/07 09:38:25;;;;;;;;;16.75;13.25;;;;;9.54;66.95;100982.47;5117309;27;46256;-70
2024/01/07 09:40:51;;;;;;;;;6.50;5.00;;;;;9.67;63.43;100982.16;5118699;27;45519;-70
2024/01/07 09:43:17;;;;;;;;;14.00;13.00;;;;;9.77;62.57;100978.19;5116375;27;45382;-70
2024/01/07 09:45:46;;;;;;;;;16.50;13.50;;;;;9.82;64.54;100975.75;5118360;27;45515;-70
2024/01/07 09:48:12;;;;;;;;;16.50;15.25;;;;;9.73;64.54;100955.44;5117083;27;46094;-70
2024/01/07 09:50:38;;;;;;;;;17.00;15.00;;;;;9.61;65.06;100947.09;5117713;27;45427;-71
2024/01/07 09:53:04;;;;;;;;;13.25;12.75;;;;;10.33;66.72;101000.44;5118023;27;45457;-70
2024/01/07 09:55:56;;;;;;;;;12.25;11.25;;;;;11.44;64.55;100993.94;5118609;27;45510;-71
2024/01/07 09:58:22;;;;;;;;;7.50;7.50;;;;;11.71;63.00;100980.84;5107807;27;45370;-70
2024/01/07 10:00:49;;;;;;;;;9.00;8.25;;;;;12.01;62.03;100981.81;5118019;27;45287;-70
2024/01/07 10:03:14;;;;;;;;;8.75;8.00;;;;;12.42;59.43;100975.22;5118481;27;45368;-70
2024/01/07 10:05:40;;;;;;;;;26.00;21.50;;;;;12.38;58.80;100973.34;5118376;27;45399;-70
2024/01/07 10:08:06;;;;;;;;;59.50;47.50;;;;;12.06;59.10;100969.78;5117812;27;46055;-69
2024/01/07 10:10:35;;;;;;;;;37.00;34.25;;;;;11.74;60.20;100951.28;5118287;27;45313;-70
2024/01/07 10:13:01;;;;;;;;;18.75;16.75;;;;;11.98;60.36;100969.53;5118169;27;45468;-70
2024/01/07 10:15:26;;;;;;;;;9.75;8.50;;;;;12.07;60.88;100982.88;5118124;27;45462;-70
2024/01/07 10:17:56;;;;;;;;;5.00;4.00;;;;;12.08;58.65;100976.81;5117898;27;45682;-70
2024/01/07 10:20:21;;;;;;;;;9.00;9.00;;;;;12.19;59.29;100987.63;5117291;27;45395;-69
2024/01/07 10:22:50;;;;;;;;;4.00;4.00;;;;;12.25;58.79;100985.19;5118258;27;45455;-70
2024/01/07 10:25:16;;;;;;;;;2.75;2.75;;;;;12.33;56.92;100974.94;5118687;27;45253;-69
2024/01/07 10:27:42;;;;;;;;;4.00;4.00;;;;;12.25;57.16;100973.81;5117544;27;45525;-69
2024/01/07 10:30:09;;;;;;;;;5.25;4.75;;;;;12.32;56.84;100981.03;5117923;27;45349;-70
2024/01/07 10:32:37;;;;;;;;;35.00;33.00;;;;;12.32;56.39;100936.50;5116500;27;45504;-70
2024/01/07 10:35:04;;;;;;;;;15.75;14.25;;;;;12.74;57.40;100972.63;5118210;27;45245;-70
2024/01/07 10:37:30;;;;;;;;;26.50;26.00;;;;;13.04;56.17;100966.44;5117475;27;46527;-69
2024/01/07 10:40:03;;;;;;;;;19.50;19.00;;;;;13.28;55.27;100966.19;5117717;27;46046;-69
2024/01/07 10:42:33;;;;;;;;;41.25;35.50;;;;;13.32;53.52;100945.34;5117987;27;45358;-71
2024/01/07 10:45:01;;;;;;;;;40.25;35.75;;;;;13.30;52.44;100954.91;5117866;27;45652;-68
2024/01/07 10:47:30;;;;;;;;;81.75;62.00;;;;;13.30;53.21;100959.28;5118753;27;46100;-68
2024/01/07 10:49:58;;;;;;;;;44.25;36.75;;;;;13.26;51.88;100957.41;5120889;27;45315;-68
2024/01/07 10:52:27;;;;;;;;;18.75;18.25;;;;;13.17;52.05;100960.69;5121346;27;45336;-68
2024/01/07 10:54:56;;;;;;;;;15.75;13.75;;;;;13.09;53.59;100959.56;5121057;27;45444;-68
2024/01/07 10:57:44;;;;;;;;;5.50;5.00;;;;;12.99;54.32;100960.16;5117447;27;46497;-69
2024/01/07 11:00:18;;;;;;;;;2.25;2.25;;;;;12.91;54.95;100960.88;5118313;27;45232;-70
2024/01/07 11:03:00;;;;;;;;;5.75;5.75;;;;;12.89;56.22;100959.94;5120590;27;45743;-69
2024/01/07 11:05:37;;;;;;;;;2.00;2.00;;;;;12.99;55.90;100954.94;5120390;27;45494;-68
2024/01/07 11:08:34;;;;;;;;;1.25;1.00;;;;;13.04;56.13;100948.09;5120267;27;46069;-68
2024/01/07 11:11:23;;;;;;;;;3.00;2.00;;;;;13.06;55.01;100942.03;5120354;27;45470;-70
2024/01/07 11:13:49;;;;;;;;;3.25;3.25;;;;;13.01;54.18;100953.22;5121207;27;45411;-70
2024/01/07 11:16:41;;;;;;;;;2.00;2.00;;;;;12.80;53.80;100951.81;5119789;27;45301;-68
2024/01/07 11:19:07;;;;;;;;;1.00;1.00;;;;;12.50;54.88;100913.44;5120739;27;46399;-69
2024/01/07 11:21:32;;;;;;;;;4.00;3.75;;;;;12.61;54.33;100954.78;5120738;27;45264;-69
2024/01/07 11:23:58;;;;;;;;;3.00;3.00;;;;;12.53;54.42;100957.16;5120662;27;45525;-69
2024/01/07 11:26:24;;;;;;;;;1.00;1.00;;;;;12.47;54.88;100951.75;5121173;27;45485;-69